createdAt,value
2019-02-28T00:01:37.553Z,95.23
2019-02-28T00:04:07.207Z,101.63
2019-02-28T00:06:36.897Z,94.33
2019-02-28T00:09:08.507Z,104.00
2019-02-28T00:11:39.432Z,96.17
2019-02-28T00:14:09.549Z,101.77
2019-02-28T00:16:39.308Z,97.63
2019-02-28T00:19:08.953Z,97.50
2019-02-28T00:21:40.606Z,104.87
2019-02-28T00:24:10.032Z,105.57
2019-02-28T00:26:39.877Z,103.23
2019-02-28T00:29:09.585Z,109.50
2019-02-28T00:31:39.217Z,109.60
2019-02-28T00:34:08.895Z,112.13
2019-02-28T00:36:38.532Z,106.57
2019-02-28T00:39:08.192Z,114.07
2019-02-28T00:41:42.964Z,104.17
2019-02-28T00:44:11.231Z,104.63
2019-02-28T00:46:43.846Z,111.27
2019-02-28T00:49:12.440Z,112.20
2019-02-28T00:51:42.139Z,111.17
2019-02-28T00:54:11.838Z,111.30
2019-02-28T00:56:41.476Z,112.27
2019-02-28T00:59:11.157Z,107.00
2019-02-28T01:01:43.103Z,111.00
2019-02-28T01:04:12.177Z,113.53
2019-02-28T01:06:41.942Z,113.00
2019-02-28T01:09:12.369Z,111.10
2019-02-28T01:11:44.893Z,121.33
2019-02-28T01:14:13.437Z,120.47
2019-02-28T01:16:43.098Z,121.43
2019-02-28T01:19:12.897Z,116.77
2019-02-28T01:21:42.498Z,116.50
2019-02-28T01:24:12.210Z,116.17
2019-02-28T01:26:43.374Z,112.43
2019-02-28T01:29:15.174Z,117.13
2019-02-28T01:31:44.839Z,114.07
2019-02-28T01:34:14.658Z,114.53
2019-02-28T01:36:45.923Z,122.23
2019-02-28T01:39:15.886Z,120.00
2019-02-28T01:41:45.910Z,125.63
2019-02-28T01:44:15.680Z,130.63
2019-02-28T01:46:48.517Z,117.17
2019-02-28T01:49:16.779Z,113.40
2019-02-28T01:51:46.438Z,127.67
2019-02-28T01:54:16.120Z,129.47
2019-02-28T01:56:45.781Z,125.80
2019-02-28T01:59:15.617Z,132.07
2019-02-28T02:01:45.379Z,127.43
2019-02-28T02:04:15.046Z,126.20
2019-02-28T02:06:44.693Z,127.33
2019-02-28T02:09:14.814Z,123.47
2019-02-28T02:11:44.472Z,127.33
2019-02-28T02:14:14.233Z,126.57
2019-02-28T02:16:43.969Z,130.90
2019-02-28T02:19:17.588Z,135.10
2019-02-28T02:21:45.159Z,138.27
2019-02-28T02:24:15.217Z,133.73
2019-02-28T02:26:45.836Z,123.67
2019-02-28T02:29:15.657Z,134.87
2019-02-28T02:31:45.333Z,132.10
2019-02-28T02:34:15.018Z,137.53
2019-02-28T02:36:44.771Z,136.97
2019-02-28T02:39:17.601Z,141.33
2019-02-28T02:41:46.069Z,139.07
2019-02-28T02:44:15.748Z,154.37
2019-02-28T02:46:45.465Z,153.80
2019-02-28T02:49:19.790Z,144.40
2019-02-28T02:51:50.528Z,147.37
2019-02-28T02:54:20.209Z,145.73
2019-02-28T02:56:50.132Z,151.20
2019-02-28T02:59:19.941Z,154.47
2019-02-28T03:01:49.735Z,151.50
2019-02-28T03:04:23.100Z,153.57
2019-02-28T03:06:50.810Z,157.53
2019-02-28T03:09:20.450Z,144.60
2019-02-28T03:11:50.544Z,164.47
2019-02-28T03:14:20.724Z,150.63
2019-02-28T03:16:50.593Z,153.17
2019-02-28T03:19:20.338Z,149.43
2019-02-28T03:21:52.583Z,155.37
2019-02-28T03:24:22.094Z,159.63
2019-02-28T03:26:51.882Z,160.80
2019-02-28T03:29:21.617Z,176.47
2019-02-28T03:31:56.483Z,177.50
2019-02-28T03:34:22.690Z,163.23
2019-02-28T03:36:57.099Z,167.77
2019-02-28T03:39:24.594Z,178.10
2019-02-28T03:41:55.462Z,177.93
2019-02-28T03:44:25.116Z,176.37
2019-02-28T03:46:55.633Z,180.80
2019-02-28T03:49:25.374Z,186.93
2019-02-28T03:51:55.083Z,191.20
2019-02-28T03:54:28.808Z,194.03
2019-02-28T03:56:56.147Z,188.57
2019-02-28T03:59:25.826Z,191.40
2019-02-28T04:01:55.503Z,212.90
2019-02-28T04:04:25.254Z,202.27
2019-02-28T04:06:54.931Z,211.33
2019-02-28T04:09:24.578Z,191.13
2019-02-28T04:11:54.274Z,207.27
2019-02-28T04:14:23.971Z,214.77
2019-02-28T04:16:54.559Z,214.00
2019-02-28T04:19:24.309Z,209.53
2019-02-28T04:21:53.999Z,206.33
2019-02-28T04:24:23.680Z,201.50
2019-02-28T04:26:53.628Z,214.97
2019-02-28T04:29:30.002Z,220.83
2019-02-28T04:31:54.708Z,219.90
2019-02-28T04:34:24.409Z,217.77
2019-02-28T04:36:54.067Z,232.40
2019-02-28T04:39:23.767Z,227.67
2019-02-28T04:41:53.425Z,231.07
2019-02-28T04:44:23.144Z,223.03
2019-02-28T04:46:52.830Z,227.33
2019-02-28T04:49:22.836Z,222.30
2019-02-28T04:51:52.806Z,250.10
2019-02-28T04:54:24.508Z,232.97
2019-02-28T04:56:54.063Z,229.93
2019-02-28T04:59:23.825Z,233.17
2019-02-28T05:01:53.482Z,234.83
2019-02-28T05:04:23.232Z,236.53
2019-02-28T05:06:55.268Z,240.30
2019-02-28T05:09:24.420Z,249.87
2019-02-28T05:11:54.066Z,256.47
2019-02-28T05:14:24.423Z,246.70
2019-02-28T05:16:54.069Z,235.50
2019-02-28T05:19:23.833Z,229.23
2019-02-28T05:21:54.353Z,253.77
2019-02-28T05:24:24.230Z,251.87
2019-02-28T05:26:53.881Z,265.17
2019-02-28T05:29:23.578Z,280.30
2019-02-28T05:31:53.227Z,256.53
2019-02-28T05:34:22.960Z,243.03
2019-02-28T05:36:52.657Z,272.80
2019-02-28T05:39:22.366Z,287.00
2019-02-28T05:41:52.024Z,270.07
2019-02-28T05:44:21.833Z,261.37
2019-02-28T05:46:51.550Z,257.27
2019-02-28T05:49:21.223Z,255.73
2019-02-28T05:51:51.190Z,246.80
2019-02-28T05:54:20.918Z,254.77
2019-02-28T05:56:50.640Z,252.87
2019-02-28T05:59:26.220Z,248.93
2019-02-28T06:01:51.908Z,249.90
2019-02-28T06:04:21.624Z,249.20
2019-02-28T06:06:54.628Z,238.80
2019-02-28T06:09:22.724Z,263.80
2019-02-28T06:11:52.518Z,223.13
2019-02-28T06:14:26.494Z,248.73
2019-02-28T06:16:53.640Z,235.60
2019-02-28T06:19:23.386Z,224.83
2019-02-28T06:21:53.092Z,231.30
2019-02-28T06:24:22.727Z,233.80
2019-02-28T06:26:52.483Z,228.83
2019-02-28T06:29:22.138Z,230.63
2019-02-28T06:31:51.832Z,215.10
2019-02-28T06:34:21.602Z,213.77
2019-02-28T06:36:51.268Z,218.97
2019-02-28T06:39:20.965Z,215.83
2019-02-28T06:41:57.156Z,206.53
2019-02-28T06:44:27.667Z,215.67
2019-02-28T06:47:03.319Z,215.07
2019-02-28T06:49:32.940Z,228.47
2019-02-28T06:52:03.709Z,211.90
2019-02-28T06:54:33.399Z,219.00
2019-02-28T06:57:03.066Z,198.00
2019-02-28T06:59:32.835Z,196.57
2019-02-28T07:02:02.543Z,194.27
2019-02-28T07:04:32.220Z,184.27
2019-02-28T07:07:01.878Z,172.17
2019-02-28T07:09:33.599Z,193.10
2019-02-28T07:12:02.992Z,166.70
2019-02-28T07:14:32.659Z,172.20
2019-02-28T07:17:02.422Z,182.13
2019-02-28T07:19:32.053Z,173.07
2019-02-28T07:22:01.775Z,161.10
2019-02-28T07:24:37.266Z,150.20
2019-02-28T07:27:04.270Z,156.47
2019-02-28T07:29:34.053Z,140.53
2019-02-28T07:32:03.780Z,145.83
2019-02-28T07:34:33.435Z,138.60
2019-02-28T07:37:03.266Z,120.70
2019-02-28T07:39:32.976Z,115.83
2019-02-28T07:42:03.055Z,115.10
2019-02-28T07:44:32.714Z,112.33
2019-02-28T07:47:02.479Z,111.07
2019-02-28T07:49:35.856Z,112.70
2019-02-28T07:52:03.656Z,113.33
2019-02-28T07:54:51.814Z,91.43
2019-02-28T07:57:19.076Z,78.43
2019-02-28T07:59:48.761Z,98.77
2019-02-28T08:02:18.433Z,87.17
2019-02-28T08:04:50.784Z,98.60
2019-02-28T08:07:19.669Z,91.30
2019-02-28T08:09:49.315Z,82.17
2019-02-28T08:12:19.206Z,82.90
2019-02-28T08:14:48.996Z,74.47
2019-02-28T08:17:18.707Z,81.90
2019-02-28T08:19:48.509Z,66.83
2019-02-28T08:22:23.222Z,67.47
2019-02-28T08:24:49.820Z,68.93
2019-02-28T08:27:20.038Z,80.57
2019-02-28T08:29:49.764Z,73.43
2019-02-28T08:32:19.589Z,70.60
2019-02-28T08:34:49.267Z,66.30
2019-02-28T08:37:20.109Z,66.07
2019-02-28T08:39:50.464Z,62.97
2019-02-28T08:42:20.311Z,69.63
2019-02-28T08:44:50.039Z,70.03
2019-02-28T08:47:21.049Z,61.63
2019-02-28T08:49:51.393Z,70.33
2019-02-28T08:52:21.220Z,61.87
2019-02-28T08:54:51.173Z,49.50
2019-02-28T08:57:21.944Z,63.33
2019-02-28T08:59:56.385Z,69.73
2019-02-28T09:02:24.396Z,61.20
2019-02-28T09:04:54.064Z,66.77
2019-02-28T09:07:24.211Z,61.57
2019-02-28T09:09:54.346Z,59.43
2019-02-28T09:12:24.244Z,60.60
2019-02-28T09:14:55.231Z,59.77
2019-02-28T09:17:26.737Z,58.13
2019-02-28T09:19:56.784Z,66.87
2019-02-28T09:22:27.472Z,60.63
2019-02-28T09:24:57.928Z,54.93
2019-02-28T09:27:27.796Z,57.47
2019-02-28T09:29:57.627Z,68.33
2019-02-28T09:32:27.444Z,59.83
2019-02-28T09:34:57.108Z,61.10
2019-02-28T09:37:33.129Z,63.40
2019-02-28T09:40:02.887Z,66.50
2019-02-28T09:42:32.660Z,60.93
2019-02-28T09:45:06.790Z,64.63
2019-02-28T09:47:34.096Z,67.40
2019-02-28T09:50:05.001Z,62.37
2019-02-28T09:52:34.969Z,55.37
2019-02-28T09:55:05.932Z,68.60
2019-02-28T09:57:38.957Z,63.13
2019-02-28T10:00:12.708Z,66.13
2019-02-28T10:02:43.925Z,65.93
2019-02-28T10:05:14.593Z,63.90
2019-02-28T10:07:50.689Z,73.43
2019-02-28T10:10:25.841Z,59.97
2019-02-28T10:12:56.815Z,63.33
2019-02-28T10:15:27.134Z,74.57
2019-02-28T10:17:56.845Z,61.00
2019-02-28T10:20:35.657Z,55.97
2019-02-28T10:23:05.561Z,60.83
2019-02-28T10:25:40.054Z,62.73
2019-02-28T10:28:07.224Z,71.93
2019-02-28T10:30:37.382Z,66.43
2019-02-28T10:33:07.115Z,57.47
2019-02-28T10:35:37.735Z,65.20
2019-02-28T10:38:07.470Z,59.63
2019-02-28T10:40:37.193Z,69.97
2019-02-28T10:43:06.837Z,66.47
2019-02-28T10:45:41.281Z,64.27
2019-02-28T10:48:08.443Z,61.00
2019-02-28T10:50:39.135Z,59.63
2019-02-28T10:53:09.236Z,48.10
2019-02-28T10:55:39.363Z,53.13
2019-02-28T10:58:09.113Z,50.43
2019-02-28T11:00:41.934Z,50.70
2019-02-28T11:03:11.793Z,55.07
2019-02-28T11:05:44.020Z,50.77
2019-02-28T11:08:18.928Z,56.83
2019-02-28T11:10:47.932Z,44.53
2019-02-28T11:13:21.231Z,53.90
2019-02-28T11:15:51.468Z,51.17
2019-02-28T11:18:21.280Z,50.83
2019-02-28T11:20:51.030Z,51.60
2019-02-28T11:23:22.376Z,49.53
2019-02-28T11:25:54.893Z,49.87
2019-02-28T11:28:27.910Z,47.07
2019-02-28T11:30:56.482Z,43.10
2019-02-28T11:33:26.488Z,44.60
2019-02-28T11:35:59.023Z,38.77
2019-02-28T11:38:28.512Z,48.47
2019-02-28T11:40:58.363Z,44.57
2019-02-28T11:43:28.197Z,38.37
2019-02-28T11:46:01.076Z,39.90
2019-02-28T11:48:29.317Z,44.93
2019-02-28T11:51:01.919Z,36.33
2019-02-28T11:53:31.665Z,34.53
2019-02-28T11:56:01.302Z,31.80
2019-02-28T11:58:30.959Z,33.17
2019-02-28T12:01:02.262Z,31.57
2019-02-28T12:03:35.426Z,42.43
2019-02-28T12:06:03.423Z,27.47
2019-02-28T12:08:33.113Z,28.70
2019-02-28T12:11:02.938Z,33.63
2019-02-28T12:13:32.657Z,28.93
2019-02-28T12:16:02.491Z,26.93
2019-02-28T12:18:32.250Z,22.50
2019-02-28T12:21:04.189Z,24.33
2019-02-28T12:23:33.370Z,26.10
2019-02-28T12:26:09.968Z,28.20
2019-02-28T12:28:39.638Z,24.93
2019-02-28T12:31:09.485Z,23.87
2019-02-28T12:33:39.163Z,21.60
2019-02-28T12:36:11.286Z,18.40
2019-02-28T12:38:40.196Z,22.03
2019-02-28T12:41:09.919Z,26.50
2019-02-28T12:43:40.551Z,28.57
2019-02-28T12:46:11.222Z,21.80
2019-02-28T12:48:40.881Z,27.30
2019-02-28T12:51:10.531Z,20.27
2019-02-28T12:53:40.198Z,19.23
2019-02-28T12:56:14.265Z,15.33
2019-02-28T12:58:44.227Z,24.97
2019-02-28T13:01:13.884Z,32.20
2019-02-28T13:03:43.582Z,26.37
2019-02-28T13:06:13.212Z,26.30
2019-02-28T13:08:42.944Z,25.33
2019-02-28T13:11:12.592Z,15.27
2019-02-28T13:13:42.332Z,17.47
2019-02-28T13:16:13.597Z,17.67
2019-02-28T13:18:44.421Z,21.03
2019-02-28T13:21:14.030Z,21.63
2019-02-28T13:23:43.735Z,23.97
2019-02-28T13:26:13.420Z,19.97
2019-02-28T13:28:43.389Z,22.30
2019-02-28T13:31:13.126Z,15.53
2019-02-28T13:33:42.825Z,17.00
2019-02-28T13:36:13.030Z,15.47
2019-02-28T13:38:42.724Z,11.70
2019-02-28T13:41:14.995Z,17.23
2019-02-28T13:43:43.737Z,16.60
2019-02-28T13:46:13.558Z,16.40
2019-02-28T13:48:43.248Z,16.93
2019-02-28T13:51:13.007Z,16.67
2019-02-28T13:53:42.679Z,14.17
2019-02-28T13:56:12.438Z,19.73
2019-02-28T13:58:42.310Z,11.77
2019-02-28T14:01:12.049Z,17.03
2019-02-28T14:03:42.318Z,17.33
2019-02-28T14:06:18.911Z,25.13
2019-02-28T14:08:45.999Z,17.67
2019-02-28T14:11:16.049Z,18.57
2019-02-28T14:13:45.781Z,19.17
2019-02-28T14:16:15.512Z,22.77
2019-02-28T14:18:45.436Z,21.53
2019-02-28T14:21:16.201Z,11.73
2019-02-28T14:23:45.963Z,13.20
2019-02-28T14:26:15.685Z,23.93
2019-02-28T14:28:45.305Z,19.60
2019-02-28T14:31:14.967Z,24.37
2019-02-28T14:33:44.829Z,26.50
2019-02-28T14:36:14.894Z,14.73
2019-02-28T14:38:44.554Z,14.30
2019-02-28T14:41:14.234Z,16.67
2019-02-28T14:43:43.897Z,24.33
2019-02-28T14:46:15.138Z,23.97
2019-02-28T14:48:44.921Z,20.93
2019-02-28T14:51:14.642Z,19.77
2019-02-28T14:53:45.479Z,25.37
2019-02-28T14:56:15.736Z,24.67
2019-02-28T14:58:45.408Z,16.37
2019-02-28T15:01:17.994Z,15.63
2019-02-28T15:03:46.837Z,21.57
2019-02-28T15:06:16.490Z,23.67
2019-02-28T15:08:47.419Z,18.97
2019-02-28T15:11:17.660Z,16.37
2019-02-28T15:13:47.338Z,22.27
2019-02-28T15:16:17.036Z,21.07
2019-02-28T15:18:47.694Z,20.97
2019-02-28T15:21:18.159Z,16.17
2019-02-28T15:23:47.831Z,29.37
2019-02-28T15:26:17.491Z,17.23
2019-02-28T15:28:48.567Z,21.37
2019-02-28T15:31:20.913Z,19.30
2019-02-28T15:33:50.591Z,21.17
2019-02-28T15:36:20.866Z,14.13
2019-02-28T15:38:51.876Z,19.63
2019-02-28T15:41:21.553Z,20.30
2019-02-28T15:43:53.726Z,31.23
2019-02-28T15:46:22.636Z,19.27
2019-02-28T15:48:52.286Z,22.63
2019-02-28T15:51:22.083Z,21.43
2019-02-28T15:53:51.779Z,22.77
2019-02-28T15:56:21.419Z,20.90
2019-02-28T15:58:51.166Z,18.63
2019-02-28T16:01:20.855Z,22.17
2019-02-28T16:03:51.308Z,23.50
2019-02-28T16:06:22.144Z,28.33
2019-02-28T16:08:51.790Z,20.90
2019-02-28T16:11:21.427Z,28.03
2019-02-28T16:13:51.226Z,20.53
2019-02-28T16:16:21.524Z,13.37
2019-02-28T16:18:52.361Z,17.87
2019-02-28T16:21:22.005Z,24.50
2019-02-28T16:23:51.723Z,23.83
2019-02-28T16:26:30.452Z,25.43
2019-02-28T16:29:00.291Z,28.87
2019-02-28T16:31:30.025Z,21.33
2019-02-28T16:34:08.016Z,20.87
2019-02-28T16:36:31.042Z,26.50
2019-02-28T16:39:00.696Z,20.17
2019-02-28T16:41:30.443Z,16.27
2019-02-28T16:44:00.110Z,24.93
2019-02-28T16:46:30.264Z,17.03
2019-02-28T16:48:59.879Z,23.50
2019-02-28T16:51:30.266Z,22.67
2019-02-28T16:53:59.902Z,29.60
2019-02-28T16:56:29.541Z,22.70
2019-02-28T16:59:00.698Z,26.50
2019-02-28T17:01:30.422Z,20.23
2019-02-28T17:04:00.419Z,24.53
2019-02-28T17:06:32.584Z,17.67
2019-02-28T17:09:03.058Z,22.83
2019-02-28T17:11:33.361Z,31.00
2019-02-28T17:14:04.792Z,21.57
2019-02-28T17:16:37.010Z,18.70
2019-02-28T17:19:08.582Z,27.27
2019-02-28T17:21:38.409Z,26.80
2019-02-28T17:24:08.717Z,25.93
2019-02-28T17:26:49.936Z,27.63
2019-02-28T17:29:25.176Z,29.30
2019-02-28T17:31:55.016Z,28.93
2019-02-28T17:34:25.282Z,27.82
2019-02-28T17:36:55.097Z,26.97
2019-02-28T17:39:24.895Z,31.50
2019-02-28T17:41:54.588Z,33.60
2019-02-28T17:44:27.392Z,25.40
2019-02-28T17:47:00.582Z,27.10
2019-02-28T17:49:40.198Z,25.47
2019-02-28T17:52:15.660Z,27.23
2019-02-28T17:54:54.316Z,20.73
2019-02-28T17:57:35.787Z,28.03
2019-02-28T18:00:16.151Z,23.17
2019-02-28T18:03:06.541Z,21.93
2019-02-28T18:05:50.146Z,16.53
2019-02-28T18:08:22.705Z,31.27
2019-02-28T18:11:30.877Z,27.07
2019-02-28T18:14:27.831Z,29.47
2019-02-28T18:17:18.082Z,18.23
2019-02-28T18:20:14.693Z,25.07
2019-02-28T18:22:56.982Z,27.80
2019-02-28T18:25:48.616Z,30.93
2019-02-28T18:28:22.531Z,28.40
2019-02-28T18:31:10.944Z,26.07
2019-02-28T18:33:55.196Z,32.73
2019-02-28T18:36:27.823Z,26.33
2019-02-28T18:39:01.812Z,26.97
2019-02-28T18:41:32.017Z,30.53
2019-02-28T18:44:03.753Z,28.97
2019-02-28T18:46:33.136Z,25.77
2019-02-28T18:49:02.876Z,23.00
2019-02-28T18:51:32.572Z,23.13
2019-02-28T18:54:02.272Z,35.73
2019-02-28T18:56:32.094Z,27.70
2019-02-28T18:59:01.791Z,32.20
2019-02-28T19:01:31.536Z,25.30
2019-02-28T19:04:01.274Z,25.87
2019-02-28T19:06:30.994Z,26.80
2019-02-28T19:09:00.734Z,26.83
2019-02-28T19:11:30.454Z,22.13
2019-02-28T19:14:00.187Z,22.53
2019-02-28T19:16:29.898Z,30.73
2019-02-28T19:18:59.592Z,27.60
2019-02-28T19:21:29.382Z,34.60
2019-02-28T19:23:59.089Z,23.33
2019-02-28T19:26:28.813Z,26.70
2019-02-28T19:28:58.536Z,22.90
2019-02-28T19:31:28.327Z,26.57
2019-02-28T19:33:58.069Z,27.87
2019-02-28T19:36:27.756Z,28.20
2019-02-28T19:38:57.493Z,23.53
2019-02-28T19:41:27.280Z,29.63
2019-02-28T19:43:57.013Z,19.97
2019-02-28T19:46:26.732Z,33.53
2019-02-28T19:48:56.449Z,17.33
2019-02-28T19:51:26.179Z,22.30
2019-02-28T19:53:55.957Z,30.63
2019-02-28T19:56:25.632Z,26.73
2019-02-28T19:58:55.411Z,22.43
2019-02-28T20:01:25.133Z,33.47
2019-02-28T20:03:54.867Z,30.00
2019-02-28T20:06:26.143Z,24.77
2019-02-28T20:08:55.945Z,29.93
2019-02-28T20:11:25.713Z,25.43
2019-02-28T20:13:55.479Z,15.57
2019-02-28T20:16:25.173Z,21.93
2019-02-28T20:18:54.920Z,19.37
2019-02-28T20:21:24.675Z,25.43
2019-02-28T20:23:54.466Z,20.60
2019-02-28T20:26:24.158Z,24.10
2019-02-28T20:28:53.884Z,23.70
2019-02-28T20:31:23.602Z,17.87
2019-02-28T20:33:53.451Z,24.33
2019-02-28T20:36:23.538Z,19.77
2019-02-28T20:38:53.309Z,28.00
2019-02-28T20:41:23.202Z,30.47
2019-02-28T20:43:52.944Z,16.70
2019-02-28T20:46:22.648Z,22.90
2019-02-28T20:48:52.342Z,23.93
2019-02-28T20:51:22.102Z,15.93
2019-02-28T20:53:51.779Z,27.73
2019-02-28T20:56:21.480Z,17.70
2019-02-28T20:58:51.220Z,19.53
2019-02-28T21:01:23.905Z,27.83
2019-02-28T21:03:53.657Z,23.30
2019-02-28T21:06:24.089Z,23.43
2019-02-28T21:08:53.855Z,21.73
2019-02-28T21:11:23.591Z,27.87
2019-02-28T21:13:53.298Z,18.37
2019-02-28T21:16:23.010Z,25.47
2019-02-28T21:18:52.746Z,28.07
2019-02-28T21:21:22.458Z,17.60
2019-02-28T21:23:52.184Z,24.53
2019-02-28T21:26:21.844Z,22.50
2019-02-28T21:28:51.484Z,25.53
2019-02-28T21:31:21.131Z,26.27
2019-02-28T21:33:50.839Z,22.93
2019-02-28T21:36:20.536Z,20.33
2019-02-28T21:38:50.175Z,17.17
2019-02-28T21:41:19.850Z,13.90
2019-02-28T21:43:49.493Z,17.70
2019-02-28T21:46:19.197Z,15.03
2019-02-28T21:48:48.837Z,17.83
2019-02-28T21:51:18.642Z,10.20
2019-02-28T21:53:48.272Z,17.80
2019-02-28T21:56:17.973Z,18.20
2019-02-28T21:58:47.666Z,14.03
2019-02-28T22:01:17.401Z,26.67
2019-02-28T22:03:47.032Z,14.97
2019-02-28T22:06:16.692Z,12.97
2019-02-28T22:08:46.455Z,14.00
2019-02-28T22:11:16.135Z,20.00
2019-02-28T22:13:45.762Z,23.63
2019-02-28T22:16:15.429Z,14.37
2019-02-28T22:18:45.115Z,16.80
2019-02-28T22:21:14.786Z,19.37
2019-02-28T22:23:44.433Z,7.27
2019-02-28T22:26:14.206Z,15.33
2019-02-28T22:28:43.836Z,15.63
2019-02-28T22:31:22.301Z,14.47
2019-02-28T22:33:53.621Z,11.57
2019-02-28T22:36:24.914Z,15.40
2019-02-28T22:38:54.546Z,8.63
2019-02-28T22:41:24.191Z,13.00
2019-02-28T22:43:53.887Z,9.53
2019-02-28T22:46:23.520Z,11.90
2019-02-28T22:48:53.159Z,11.47
2019-02-28T22:51:22.820Z,8.63
2019-02-28T22:53:52.455Z,14.90
2019-02-28T22:56:22.127Z,9.33
2019-02-28T22:58:51.808Z,11.83
2019-02-28T23:01:24.555Z,8.87
2019-02-28T23:03:54.199Z,7.37
2019-02-28T23:06:23.833Z,8.70
2019-02-28T23:08:53.484Z,18.90
2019-02-28T23:11:23.230Z,11.67
2019-02-28T23:13:52.843Z,8.73
2019-02-28T23:16:22.506Z,11.77
2019-02-28T23:18:52.148Z,20.73
2019-02-28T23:21:21.790Z,7.77
2019-02-28T23:23:51.448Z,6.60
2019-02-28T23:26:24.163Z,10.03
2019-02-28T23:28:59.532Z,8.07
2019-02-28T23:31:46.567Z,10.37
2019-02-28T23:34:27.867Z,7.67
2019-02-28T23:36:57.541Z,13.77
2019-02-28T23:39:27.182Z,9.13
2019-02-28T23:41:56.830Z,4.57
2019-02-28T23:44:26.478Z,13.37
2019-02-28T23:47:00.306Z,7.60
2019-02-28T23:49:29.945Z,10.20
2019-02-28T23:51:59.580Z,7.83
2019-02-28T23:54:29.198Z,5.67
2019-02-28T23:56:59.937Z,4.77
2019-02-28T23:59:29.575Z,10.23
